sensor_id;sensor_type;location;lat;lon;timestamp;P1;durP1;ratioP1;P2;durP2;ratioP2
315;SDS011;14128;48.686;9.738;2024-03-25T00:01:53;4.83;;;2.43;;
315;SDS011;14128;48.686;9.738;2024-03-25T00:04:19;4.70;;;1.97;;
315;SDS011;14128;48.686;9.738;2024-03-25T00:06:47;2.03;;;1.90;;
315;SDS011;14128;48.686;9.738;2024-03-25T00:09:14;4.53;;;2.03;;
315;SDS011;14128;48.686;9.738;2024-03-25T00:11:41;3.27;;;1.60;;
315;SDS011;14128;48.686;9.738;2024-03-25T00:14:07;8.13;;;2.53;;
315;SDS011;14128;48.686;9.738;2024-03-25T00:16:35;3.60;;;1.40;;
315;SDS011;14128;48.686;9.738;2024-03-25T00:19:03;3.73;;;1.53;;
315;SDS011;14128;48.686;9.738;2024-03-25T00:21:30;4.17;;;1.43;;
315;SDS011;14128;48.686;9.738;2024-03-25T00:23:57;2.10;;;1.83;;
315;SDS011;14128;48.686;9.738;2024-03-25T00:26:24;1.97;;;1.80;;
315;SDS011;14128;48.686;9.738;2024-03-25T00:28:51;7.03;;;2.47;;
315;SDS011;14128;48.686;9.738;2024-03-25T00:31:17;6.13;;;1.80;;
315;SDS011;14128;48.686;9.738;2024-03-25T00:33:44;2.50;;;1.60;;
315;SDS011;14128;48.686;9.738;2024-03-25T00:36:12;6.83;;;2.10;;
315;SDS011;14128;48.686;9.738;2024-03-25T00:38:39;4.67;;;2.60;;
315;SDS011;14128;48.686;9.738;2024-03-25T00:41:05;4.97;;;1.53;;
315;SDS011;14128;48.686;9.738;2024-03-25T00:43:33;3.10;;;1.93;;
315;SDS011;14128;48.686;9.738;2024-03-25T00:45:59;5.10;;;1.40;;
315;SDS011;14128;48.686;9.738;2024-03-25T00:48:26;4.57;;;1.90;;
315;SDS011;14128;48.686;9.738;2024-03-25T00:50:52;3.07;;;1.70;;
315;SDS011;14128;48.686;9.738;2024-03-25T00:53:20;3.70;;;2.50;;
315;SDS011;14128;48.686;9.738;2024-03-25T00:55:47;3.90;;;2.33;;
315;SDS011;14128;48.686;9.738;2024-03-25T00:58:14;1.80;;;1.30;;
315;SDS011;14128;48.686;9.738;2024-03-25T01:00:40;2.73;;;1.37;;
315;SDS011;14128;48.686;9.738;2024-03-25T01:03:07;3.43;;;1.60;;
315;SDS011;14128;48.686;9.738;2024-03-25T01:05:33;2.20;;;1.60;;
315;SDS011;14128;48.686;9.738;2024-03-25T01:08:01;3.93;;;2.10;;
315;SDS011;14128;48.686;9.738;2024-03-25T01:10:28;2.30;;;2.00;;
315;SDS011;14128;48.686;9.738;2024-03-25T01:12:55;2.60;;;2.07;;
315;SDS011;14128;48.686;9.738;2024-03-25T01:15:22;3.83;;;2.37;;
315;SDS011;14128;48.686;9.738;2024-03-25T01:17:49;3.80;;;2.60;;
315;SDS011;14128;48.686;9.738;2024-03-25T01:20:15;7.70;;;2.63;;
315;SDS011;14128;48.686;9.738;2024-03-25T01:22:42;4.33;;;2.27;;
315;SDS011;14128;48.686;9.738;2024-03-25T01:25:08;1.83;;;1.83;;
315;SDS011;14128;48.686;9.738;2024-03-25T01:27:37;3.50;;;1.70;;
315;SDS011;14128;48.686;9.738;2024-03-25T01:30:04;3.57;;;2.30;;
315;SDS011;14128;48.686;9.738;2024-03-25T01:32:31;2.40;;;2.20;;
315;SDS011;14128;48.686;9.738;2024-03-25T01:34:58;4.27;;;2.30;;
315;SDS011;14128;48.686;9.738;2024-03-25T01:37:25;5.60;;;2.13;;
315;SDS011;14128;48.686;9.738;2024-03-25T01:39:51;4.63;;;2.00;;
315;SDS011;14128;48.686;9.738;2024-03-25T01:42:18;2.97;;;2.13;;
315;SDS011;14128;48.686;9.738;2024-03-25T01:44:46;3.20;;;3.00;;
315;SDS011;14128;48.686;9.738;2024-03-25T01:47:13;5.03;;;2.87;;
315;SDS011;14128;48.686;9.738;2024-03-25T01:49:39;3.83;;;2.43;;
315;SDS011;14128;48.686;9.738;2024-03-25T01:52:07;4.43;;;2.23;;
315;SDS011;14128;48.686;9.738;2024-03-25T01:54:33;3.60;;;1.77;;
315;SDS011;14128;48.686;9.738;2024-03-25T01:57:00;11.23;;;2.80;;
315;SDS011;14128;48.686;9.738;2024-03-25T01:59:26;2.30;;;2.13;;
315;SDS011;14128;48.686;9.738;2024-03-25T02:01:56;6.20;;;2.70;;
315;SDS011;14128;48.686;9.738;2024-03-25T02:04:22;3.43;;;2.50;;
315;SDS011;14128;48.686;9.738;2024-03-25T02:06:50;4.30;;;1.70;;
315;SDS011;14128;48.686;9.738;2024-03-25T02:09:16;10.00;;;2.97;;
315;SDS011;14128;48.686;9.738;2024-03-25T02:11:43;4.20;;;3.00;;
315;SDS011;14128;48.686;9.738;2024-03-25T02:14:10;3.00;;;2.57;;
315;SDS011;14128;48.686;9.738;2024-03-25T02:16:37;2.33;;;1.80;;
315;SDS011;14128;48.686;9.738;2024-03-25T02:19:05;2.73;;;2.30;;
315;SDS011;14128;48.686;9.738;2024-03-25T02:21:32;5.07;;;2.07;;
315;SDS011;14128;48.686;9.738;2024-03-25T02:23:59;3.63;;;2.80;;
315;SDS011;14128;48.686;9.738;2024-03-25T02:26:28;2.37;;;2.17;;
315;SDS011;14128;48.686;9.738;2024-03-25T02:28:54;5.00;;;3.00;;
315;SDS011;14128;48.686;9.738;2024-03-25T02:31:21;3.53;;;2.60;;
315;SDS011;14128;48.686;9.738;2024-03-25T02:33:47;4.60;;;3.10;;
315;SDS011;14128;48.686;9.738;2024-03-25T02:36:14;3.90;;;2.53;;
315;SDS011;14128;48.686;9.738;2024-03-25T02:38:40;2.83;;;1.83;;
315;SDS011;14128;48.686;9.738;2024-03-25T02:41:07;3.10;;;2.60;;
315;SDS011;14128;48.686;9.738;2024-03-25T02:43:35;12.07;;;3.60;;
315;SDS011;14128;48.686;9.738;2024-03-25T02:46:02;2.70;;;2.37;;
315;SDS011;14128;48.686;9.738;2024-03-25T02:48:29;4.50;;;3.13;;
315;SDS011;14128;48.686;9.738;2024-03-25T02:50:56;7.20;;;2.70;;
315;SDS011;14128;48.686;9.738;2024-03-25T02:53:22;7.07;;;2.60;;
315;SDS011;14128;48.686;9.738;2024-03-25T02:55:49;4.63;;;2.87;;
315;SDS011;14128;48.686;9.738;2024-03-25T02:58:15;3.43;;;2.90;;
315;SDS011;14128;48.686;9.738;2024-03-25T03:00:44;4.50;;;2.60;;
315;SDS011;14128;48.686;9.738;2024-03-25T03:03:10;4.93;;;2.40;;
315;SDS011;14128;48.686;9.738;2024-03-25T03:05:37;4.60;;;2.30;;
315;SDS011;14128;48.686;9.738;2024-03-25T03:08:04;3.87;;;2.80;;
315;SDS011;14128;48.686;9.738;2024-03-25T03:10:31;3.73;;;2.53;;
315;SDS011;14128;48.686;9.738;2024-03-25T03:12:57;5.20;;;2.53;;
315;SDS011;14128;48.686;9.738;2024-03-25T03:15:24;5.47;;;2.80;;
315;SDS011;14128;48.686;9.738;2024-03-25T03:17:52;2.17;;;1.93;;
315;SDS011;14128;48.686;9.738;2024-03-25T03:20:19;4.40;;;2.40;;
315;SDS011;14128;48.686;9.738;2024-03-25T03:22:46;5.33;;;2.90;;
315;SDS011;14128;48.686;9.738;2024-03-25T03:25:13;4.63;;;2.97;;
315;SDS011;14128;48.686;9.738;2024-03-25T03:27:39;4.53;;;2.27;;
315;SDS011;14128;48.686;9.738;2024-03-25T03:30:06;5.77;;;3.00;;
315;SDS011;14128;48.686;9.738;2024-03-25T03:32:33;2.17;;;1.70;;
315;SDS011;14128;48.686;9.738;2024-03-25T03:35:01;6.30;;;2.50;;
315;SDS011;14128;48.686;9.738;2024-03-25T03:37:27;9.67;;;2.67;;
315;SDS011;14128;48.686;9.738;2024-03-25T03:39:54;11.43;;;3.97;;
315;SDS011;14128;48.686;9.738;2024-03-25T03:42:20;2.43;;;2.23;;
315;SDS011;14128;48.686;9.738;2024-03-25T03:44:47;8.37;;;3.10;;
315;SDS011;14128;48.686;9.738;2024-03-25T03:47:14;6.60;;;2.77;;
315;SDS011;14128;48.686;9.738;2024-03-25T03:49:41;2.90;;;2.30;;
315;SDS011;14128;48.686;9.738;2024-03-25T03:52:09;5.13;;;3.07;;
315;SDS011;14128;48.686;9.738;2024-03-25T03:54:36;6.30;;;3.30;;
315;SDS011;14128;48.686;9.738;2024-03-25T03:57:04;3.97;;;2.00;;
315;SDS011;14128;48.686;9.738;2024-03-25T03:59:31;3.70;;;2.33;;
315;SDS011;14128;48.686;9.738;2024-03-25T04:01:57;3.03;;;2.23;;
315;SDS011;14128;48.686;9.738;2024-03-25T04:04:25;3.50;;;2.47;;
315;SDS011;14128;48.686;9.738;2024-03-25T04:06:51;4.73;;;3.07;;
315;SDS011;14128;48.686;9.738;2024-03-25T04:09:20;8.03;;;2.90;;
315;SDS011;14128;48.686;9.738;2024-03-25T04:11:48;5.07;;;2.33;;
315;SDS011;14128;48.686;9.738;2024-03-25T04:14:15;7.70;;;3.93;;
315;SDS011;14128;48.686;9.738;2024-03-25T04:16:41;3.37;;;2.47;;
315;SDS011;14128;48.686;9.738;2024-03-25T04:19:08;4.50;;;2.50;;
315;SDS011;14128;48.686;9.738;2024-03-25T04:21:35;4.20;;;2.90;;
315;SDS011;14128;48.686;9.738;2024-03-25T04:24:02;10.50;;;3.80;;
315;SDS011;14128;48.686;9.738;2024-03-25T04:26:31;3.13;;;2.03;;
315;SDS011;14128;48.686;9.738;2024-03-25T04:28:58;5.27;;;2.83;;
315;SDS011;14128;48.686;9.738;2024-03-25T04:31:24;6.60;;;3.43;;
315;SDS011;14128;48.686;9.738;2024-03-25T04:33:52;5.00;;;2.60;;
315;SDS011;14128;48.686;9.738;2024-03-25T04:36:18;6.10;;;2.87;;
315;SDS011;14128;48.686;9.738;2024-03-25T04:38:45;4.47;;;2.97;;
315;SDS011;14128;48.686;9.738;2024-03-25T04:41:11;4.33;;;2.97;;
315;SDS011;14128;48.686;9.738;2024-03-25T04:43:38;4.03;;;3.10;;
315;SDS011;14128;48.686;9.738;2024-03-25T04:46:05;5.53;;;2.97;;
315;SDS011;14128;48.686;9.738;2024-03-25T04:48:31;3.33;;;2.70;;
315;SDS011;14128;48.686;9.738;2024-03-25T04:50:57;4.67;;;3.73;;
315;SDS011;14128;48.686;9.738;2024-03-25T04:53:23;7.20;;;2.60;;
315;SDS011;14128;48.686;9.738;2024-03-25T04:55:49;4.10;;;3.10;;
315;SDS011;14128;48.686;9.738;2024-03-25T04:58:16;7.83;;;3.40;;
315;SDS011;14128;48.686;9.738;2024-03-25T05:00:43;12.10;;;4.00;;
315;SDS011;14128;48.686;9.738;2024-03-25T05:03:09;4.63;;;3.83;;
315;SDS011;14128;48.686;9.738;2024-03-25T05:05:36;6.20;;;3.17;;
315;SDS011;14128;48.686;9.738;2024-03-25T05:08:02;5.70;;;3.20;;
315;SDS011;14128;48.686;9.738;2024-03-25T05:10:28;9.77;;;2.43;;
315;SDS011;14128;48.686;9.738;2024-03-25T05:12:55;7.70;;;3.63;;
315;SDS011;14128;48.686;9.738;2024-03-25T05:15:21;7.10;;;3.90;;
315;SDS011;14128;48.686;9.738;2024-03-25T05:17:48;4.37;;;2.87;;
315;SDS011;14128;48.686;9.738;2024-03-25T05:20:15;12.50;;;3.30;;
315;SDS011;14128;48.686;9.738;2024-03-25T05:22:41;5.40;;;3.67;;
315;SDS011;14128;48.686;9.738;2024-03-25T05:25:07;3.77;;;2.87;;
315;SDS011;14128;48.686;9.738;2024-03-25T05:27:33;5.20;;;3.10;;
315;SDS011;14128;48.686;9.738;2024-03-25T05:30:00;5.90;;;3.50;;
315;SDS011;14128;48.686;9.738;2024-03-25T05:32:26;4.50;;;3.60;;
315;SDS011;14128;48.686;9.738;2024-03-25T05:34:53;5.73;;;3.47;;
315;SDS011;14128;48.686;9.738;2024-03-25T05:37:20;12.13;;;3.97;;
315;SDS011;14128;48.686;9.738;2024-03-25T05:39:46;5.33;;;3.80;;
315;SDS011;14128;48.686;9.738;2024-03-25T05:42:12;6.87;;;3.60;;
315;SDS011;14128;48.686;9.738;2024-03-25T05:44:38;4.40;;;3.23;;
315;SDS011;14128;48.686;9.738;2024-03-25T05:47:04;6.03;;;4.03;;
315;SDS011;14128;48.686;9.738;2024-03-25T05:49:31;5.23;;;4.00;;
315;SDS011;14128;48.686;9.738;2024-03-25T05:51:58;8.60;;;4.93;;
315;SDS011;14128;48.686;9.738;2024-03-25T05:54:25;8.10;;;5.20;;
315;SDS011;14128;48.686;9.738;2024-03-25T05:56:51;7.80;;;4.80;;
315;SDS011;14128;48.686;9.738;2024-03-25T05:59:17;8.07;;;3.77;;
315;SDS011;14128;48.686;9.738;2024-03-25T06:01:43;6.73;;;4.00;;
315;SDS011;14128;48.686;9.738;2024-03-25T06:04:09;11.50;;;5.27;;
315;SDS011;14128;48.686;9.738;2024-03-25T06:06:35;6.37;;;4.37;;
315;SDS011;14128;48.686;9.738;2024-03-25T06:09:03;14.80;;;4.83;;
315;SDS011;14128;48.686;9.738;2024-03-25T06:11:29;10.77;;;4.63;;
315;SDS011;14128;48.686;9.738;2024-03-25T06:13:55;10.93;;;4.97;;
315;SDS011;14128;48.686;9.738;2024-03-25T06:16:22;6.17;;;4.10;;
315;SDS011;14128;48.686;9.738;2024-03-25T06:18:48;6.40;;;5.23;;
315;SDS011;14128;48.686;9.738;2024-03-25T06:21:14;10.20;;;3.83;;
315;SDS011;14128;48.686;9.738;2024-03-25T06:23:40;5.40;;;5.10;;
315;SDS011;14128;48.686;9.738;2024-03-25T06:26:08;5.43;;;3.80;;
315;SDS011;14128;48.686;9.738;2024-03-25T06:28:34;6.77;;;4.10;;
315;SDS011;14128;48.686;9.738;2024-03-25T06:31:00;5.90;;;4.17;;
315;SDS011;14128;48.686;9.738;2024-03-25T06:33:45;8.03;;;3.60;;
315;SDS011;14128;48.686;9.738;2024-03-25T06:36:29;6.57;;;3.80;;
315;SDS011;14128;48.686;9.738;2024-03-25T06:38:56;6.07;;;3.93;;
315;SDS011;14128;48.686;9.738;2024-03-25T06:41:23;5.93;;;4.00;;
315;SDS011;14128;48.686;9.738;2024-03-25T06:43:49;5.20;;;3.30;;
315;SDS011;14128;48.686;9.738;2024-03-25T06:46:15;6.83;;;4.37;;
315;SDS011;14128;48.686;9.738;2024-03-25T06:48:42;4.00;;;2.90;;
315;SDS011;14128;48.686;9.738;2024-03-25T06:51:08;15.90;;;3.80;;
315;SDS011;14128;48.686;9.738;2024-03-25T06:53:34;5.70;;;3.73;;
315;SDS011;14128;48.686;9.738;2024-03-25T06:56:00;6.80;;;4.00;;
315;SDS011;14128;48.686;9.738;2024-03-25T06:58:28;6.27;;;4.83;;
315;SDS011;14128;48.686;9.738;2024-03-25T07:00:55;5.40;;;4.70;;
315;SDS011;14128;48.686;9.738;2024-03-25T07:03:22;10.17;;;4.83;;
315;SDS011;14128;48.686;9.738;2024-03-25T07:05:49;9.20;;;5.17;;
315;SDS011;14128;48.686;9.738;2024-03-25T07:08:15;5.67;;;3.77;;
315;SDS011;14128;48.686;9.738;2024-03-25T07:10:42;6.00;;;2.80;;
315;SDS011;14128;48.686;9.738;2024-03-25T07:13:08;5.33;;;2.53;;
315;SDS011;14128;48.686;9.738;2024-03-25T07:15:36;4.03;;;3.37;;
315;SDS011;14128;48.686;9.738;2024-03-25T07:18:02;6.73;;;4.03;;
315;SDS011;14128;48.686;9.738;2024-03-25T07:20:28;6.80;;;3.20;;
315;SDS011;14128;48.686;9.738;2024-03-25T07:22:55;6.43;;;4.00;;
315;SDS011;14128;48.686;9.738;2024-03-25T07:25:21;5.43;;;3.20;;
315;SDS011;14128;48.686;9.738;2024-03-25T07:27:47;6.47;;;5.43;;
315;SDS011;14128;48.686;9.738;2024-03-25T07:30:13;5.60;;;3.83;;
315;SDS011;14128;48.686;9.738;2024-03-25T07:32:41;8.00;;;3.60;;
315;SDS011;14128;48.686;9.738;2024-03-25T07:35:07;4.83;;;2.87;;
315;SDS011;14128;48.686;9.738;2024-03-25T07:37:34;7.70;;;4.27;;
315;SDS011;14128;48.686;9.738;2024-03-25T07:40:00;3.73;;;2.93;;
315;SDS011;14128;48.686;9.738;2024-03-25T07:42:26;4.33;;;3.37;;
315;SDS011;14128;48.686;9.738;2024-03-25T07:44:52;7.90;;;5.30;;
315;SDS011;14128;48.686;9.738;2024-03-25T07:47:18;7.57;;;4.43;;
315;SDS011;14128;48.686;9.738;2024-03-25T07:49:46;8.53;;;3.63;;
315;SDS011;14128;48.686;9.738;2024-03-25T07:52:12;4.47;;;2.70;;
315;SDS011;14128;48.686;9.738;2024-03-25T07:54:39;4.37;;;3.53;;
315;SDS011;14128;48.686;9.738;2024-03-25T07:57:05;5.20;;;3.43;;
315;SDS011;14128;48.686;9.738;2024-03-25T07:59:31;5.00;;;3.67;;
315;SDS011;14128;48.686;9.738;2024-03-25T08:01:57;4.73;;;3.70;;
315;SDS011;14128;48.686;9.738;2024-03-25T08:04:23;11.60;;;3.27;;
315;SDS011;14128;48.686;9.738;2024-03-25T08:06:51;8.43;;;3.63;;
315;SDS011;14128;48.686;9.738;2024-03-25T08:09:17;8.77;;;3.20;;
315;SDS011;14128;48.686;9.738;2024-03-25T08:11:43;8.77;;;4.27;;
315;SDS011;14128;48.686;9.738;2024-03-25T08:14:10;5.37;;;3.13;;
315;SDS011;14128;48.686;9.738;2024-03-25T08:16:36;12.63;;;3.47;;
315;SDS011;14128;48.686;9.738;2024-03-25T08:19:02;7.30;;;4.53;;
315;SDS011;14128;48.686;9.738;2024-03-25T08:21:28;4.30;;;3.57;;
315;SDS011;14128;48.686;9.738;2024-03-25T08:23:56;4.80;;;3.37;;
315;SDS011;14128;48.686;9.738;2024-03-25T08:26:22;5.80;;;3.70;;
315;SDS011;14128;48.686;9.738;2024-03-25T08:28:48;7.03;;;4.10;;
315;SDS011;14128;48.686;9.738;2024-03-25T08:31:15;5.60;;;3.33;;
315;SDS011;14128;48.686;9.738;2024-03-25T08:33:41;3.70;;;2.80;;
315;SDS011;14128;48.686;9.738;2024-03-25T08:36:07;9.00;;;3.77;;
315;SDS011;14128;48.686;9.738;2024-03-25T08:38:33;8.53;;;3.60;;
315;SDS011;14128;48.686;9.738;2024-03-25T08:41:01;12.67;;;4.13;;
315;SDS011;14128;48.686;9.738;2024-03-25T08:43:27;8.30;;;5.27;;
315;SDS011;14128;48.686;9.738;2024-03-25T08:45:53;10.33;;;4.13;;
315;SDS011;14128;48.686;9.738;2024-03-25T08:48:20;7.30;;;3.40;;
315;SDS011;14128;48.686;9.738;2024-03-25T08:50:46;5.80;;;4.17;;
315;SDS011;14128;48.686;9.738;2024-03-25T08:53:12;3.97;;;3.57;;
315;SDS011;14128;48.686;9.738;2024-03-25T08:55:43;9.23;;;4.40;;
315;SDS011;14128;48.686;9.738;2024-03-25T08:58:10;8.70;;;4.03;;
315;SDS011;14128;48.686;9.738;2024-03-25T09:00:37;4.97;;;4.67;;
315;SDS011;14128;48.686;9.738;2024-03-25T09:03:03;6.90;;;3.57;;
315;SDS011;14128;48.686;9.738;2024-03-25T09:05:29;6.10;;;4.10;;
315;SDS011;14128;48.686;9.738;2024-03-25T09:07:55;8.17;;;3.73;;
315;SDS011;14128;48.686;9.738;2024-03-25T09:10:22;8.83;;;4.00;;
315;SDS011;14128;48.686;9.738;2024-03-25T09:13:06;8.00;;;3.70;;
315;SDS011;14128;48.686;9.738;2024-03-25T09:15:34;5.90;;;3.47;;
315;SDS011;14128;48.686;9.738;2024-03-25T09:18:00;3.70;;;3.20;;
315;SDS011;14128;48.686;9.738;2024-03-25T09:20:27;10.27;;;3.97;;
315;SDS011;14128;48.686;9.738;2024-03-25T09:22:53;3.60;;;2.90;;
315;SDS011;14128;48.686;9.738;2024-03-25T09:25:19;5.20;;;3.10;;
315;SDS011;14128;48.686;9.738;2024-03-25T09:27:45;6.80;;;3.67;;
315;SDS011;14128;48.686;9.738;2024-03-25T09:30:12;5.07;;;2.87;;
315;SDS011;14128;48.686;9.738;2024-03-25T09:32:39;5.63;;;2.93;;
315;SDS011;14128;48.686;9.738;2024-03-25T09:35:06;5.20;;;3.20;;
315;SDS011;14128;48.686;9.738;2024-03-25T09:37:32;3.50;;;2.50;;
315;SDS011;14128;48.686;9.738;2024-03-25T09:39:59;5.33;;;3.10;;
315;SDS011;14128;48.686;9.738;2024-03-25T09:42:25;1.90;;;1.63;;
315;SDS011;14128;48.686;9.738;2024-03-25T09:44:53;3.60;;;1.90;;
315;SDS011;14128;48.686;9.738;2024-03-25T09:47:19;5.77;;;2.60;;
315;SDS011;14128;48.686;9.738;2024-03-25T09:49:47;3.60;;;2.70;;
315;SDS011;14128;48.686;9.738;2024-03-25T09:52:13;3.40;;;2.40;;
315;SDS011;14128;48.686;9.738;2024-03-25T09:54:40;3.50;;;1.73;;
315;SDS011;14128;48.686;9.738;2024-03-25T09:57:06;5.03;;;3.10;;
315;SDS011;14128;48.686;9.738;2024-03-25T09:59:32;5.97;;;2.70;;
315;SDS011;14128;48.686;9.738;2024-03-25T10:01:58;6.37;;;3.20;;
315;SDS011;14128;48.686;9.738;2024-03-25T10:04:25;4.23;;;2.87;;
315;SDS011;14128;48.686;9.738;2024-03-25T10:06:52;5.80;;;2.23;;
315;SDS011;14128;48.686;9.738;2024-03-25T10:09:19;3.50;;;1.60;;
315;SDS011;14128;48.686;9.738;2024-03-25T10:11:46;4.30;;;1.43;;
315;SDS011;14128;48.686;9.738;2024-03-25T10:14:14;6.70;;;2.77;;
315;SDS011;14128;48.686;9.738;2024-03-25T10:16:40;5.57;;;2.37;;
315;SDS011;14128;48.686;9.738;2024-03-25T10:19:06;5.30;;;2.27;;
315;SDS011;14128;48.686;9.738;2024-03-25T10:21:33;6.20;;;2.40;;
315;SDS011;14128;48.686;9.738;2024-03-25T10:24:00;4.87;;;1.87;;
315;SDS011;14128;48.686;9.738;2024-03-25T10:26:27;3.50;;;2.10;;
315;SDS011;14128;48.686;9.738;2024-03-25T10:29:00;2.50;;;2.13;;
315;SDS011;14128;48.686;9.738;2024-03-25T10:31:26;3.60;;;1.90;;
315;SDS011;14128;48.686;9.738;2024-03-25T10:33:52;4.37;;;2.10;;
315;SDS011;14128;48.686;9.738;2024-03-25T10:36:19;3.27;;;2.30;;
315;SDS011;14128;48.686;9.738;2024-03-25T10:38:46;2.40;;;2.00;;
315;SDS011;14128;48.686;9.738;2024-03-25T10:41:16;3.97;;;2.13;;
315;SDS011;14128;48.686;9.738;2024-03-25T10:43:44;5.07;;;1.60;;
315;SDS011;14128;48.686;9.738;2024-03-25T10:46:12;3.10;;;1.70;;
315;SDS011;14128;48.686;9.738;2024-03-25T10:48:39;1.73;;;1.20;;
315;SDS011;14128;48.686;9.738;2024-03-25T10:51:06;3.23;;;1.90;;
315;SDS011;14128;48.686;9.738;2024-03-25T10:53:33;2.73;;;1.50;;
315;SDS011;14128;48.686;9.738;2024-03-25T10:56:01;2.80;;;1.30;;
315;SDS011;14128;48.686;9.738;2024-03-25T10:58:29;5.00;;;1.77;;
315;SDS011;14128;48.686;9.738;2024-03-25T11:00:55;7.97;;;5.43;;
315;SDS011;14128;48.686;9.738;2024-03-25T11:03:22;1.60;;;1.50;;
315;SDS011;14128;48.686;9.738;2024-03-25T11:05:48;2.50;;;1.53;;
315;SDS011;14128;48.686;9.738;2024-03-25T11:08:15;3.63;;;1.93;;
315;SDS011;14128;48.686;9.738;2024-03-25T11:10:41;7.67;;;1.90;;
315;SDS011;14128;48.686;9.738;2024-03-25T11:13:09;4.07;;;1.83;;
315;SDS011;14128;48.686;9.738;2024-03-25T11:15:37;6.00;;;1.80;;
315;SDS011;14128;48.686;9.738;2024-03-25T11:18:10;3.03;;;1.60;;
315;SDS011;14128;48.686;9.738;2024-03-25T11:20:36;3.20;;;1.53;;
315;SDS011;14128;48.686;9.738;2024-03-25T11:23:07;1.13;;;1.00;;
315;SDS011;14128;48.686;9.738;2024-03-25T11:25:34;5.77;;;1.77;;
315;SDS011;14128;48.686;9.738;2024-03-25T11:28:00;2.47;;;1.80;;
315;SDS011;14128;48.686;9.738;2024-03-25T11:30:26;2.40;;;1.60;;
315;SDS011;14128;48.686;9.738;2024-03-25T11:32:54;1.80;;;1.73;;
315;SDS011;14128;48.686;9.738;2024-03-25T11:35:21;2.80;;;1.20;;
315;SDS011;14128;48.686;9.738;2024-03-25T11:37:47;1.77;;;1.50;;
315;SDS011;14128;48.686;9.738;2024-03-25T11:40:13;3.37;;;2.10;;
315;SDS011;14128;48.686;9.738;2024-03-25T11:42:40;4.10;;;2.03;;
315;SDS011;14128;48.686;9.738;2024-03-25T11:45:07;5.67;;;1.80;;
315;SDS011;14128;48.686;9.738;2024-03-25T11:47:33;5.63;;;1.80;;
315;SDS011;14128;48.686;9.738;2024-03-25T11:50:01;3.63;;;1.50;;
315;SDS011;14128;48.686;9.738;2024-03-25T11:52:33;2.23;;;1.70;;
315;SDS011;14128;48.686;9.738;2024-03-25T11:54:59;3.43;;;1.80;;
315;SDS011;14128;48.686;9.738;2024-03-25T11:57:25;2.37;;;1.70;;
315;SDS011;14128;48.686;9.738;2024-03-25T11:59:51;3.40;;;1.60;;
315;SDS011;14128;48.686;9.738;2024-03-25T12:02:18;1.87;;;1.43;;
315;SDS011;14128;48.686;9.738;2024-03-25T12:04:44;1.50;;;1.30;;
315;SDS011;14128;48.686;9.738;2024-03-25T12:07:13;3.27;;;1.73;;
315;SDS011;14128;48.686;9.738;2024-03-25T12:09:39;2.10;;;1.97;;
315;SDS011;14128;48.686;9.738;2024-03-25T12:12:30;2.37;;;1.70;;
315;SDS011;14128;48.686;9.738;2024-03-25T12:14:56;4.23;;;1.97;;
315;SDS011;14128;48.686;9.738;2024-03-25T12:17:22;3.70;;;1.43;;
315;SDS011;14128;48.686;9.738;2024-03-25T12:19:58;3.20;;;1.47;;
315;SDS011;14128;48.686;9.738;2024-03-25T12:22:26;1.73;;;1.53;;
315;SDS011;14128;48.686;9.738;2024-03-25T12:24:53;2.73;;;1.50;;
315;SDS011;14128;48.686;9.738;2024-03-25T12:27:22;2.30;;;1.50;;
315;SDS011;14128;48.686;9.738;2024-03-25T12:29:56;2.83;;;1.33;;
315;SDS011;14128;48.686;9.738;2024-03-25T12:32:30;1.63;;;1.40;;
315;SDS011;14128;48.686;9.738;2024-03-25T12:34:57;1.87;;;1.20;;
315;SDS011;14128;48.686;9.738;2024-03-25T12:37:23;3.03;;;1.70;;
315;SDS011;14128;48.686;9.738;2024-03-25T12:39:51;2.40;;;1.20;;
315;SDS011;14128;48.686;9.738;2024-03-25T12:42:20;3.60;;;2.37;;
315;SDS011;14128;48.686;9.738;2024-03-25T12:44:46;1.40;;;1.20;;
315;SDS011;14128;48.686;9.738;2024-03-25T12:47:13;1.70;;;1.43;;
315;SDS011;14128;48.686;9.738;2024-03-25T12:49:39;4.90;;;1.70;;
315;SDS011;14128;48.686;9.738;2024-03-25T12:52:05;2.70;;;1.60;;
315;SDS011;14128;48.686;9.738;2024-03-25T12:54:32;3.80;;;1.80;;
315;SDS011;14128;48.686;9.738;2024-03-25T12:57:00;1.80;;;1.60;;
315;SDS011;14128;48.686;9.738;2024-03-25T12:59:26;2.43;;;2.27;;
315;SDS011;14128;48.686;9.738;2024-03-25T13:01:52;2.17;;;1.47;;
315;SDS011;14128;48.686;9.738;2024-03-25T13:04:18;4.73;;;1.47;;
315;SDS011;14128;48.686;9.738;2024-03-25T13:06:44;2.87;;;1.40;;
315;SDS011;14128;48.686;9.738;2024-03-25T13:09:11;3.50;;;1.83;;
315;SDS011;14128;48.686;9.738;2024-03-25T13:11:37;2.20;;;1.30;;
315;SDS011;14128;48.686;9.738;2024-03-25T13:14:05;4.07;;;0.97;;
315;SDS011;14128;48.686;9.738;2024-03-25T13:16:31;2.00;;;1.73;;
315;SDS011;14128;48.686;9.738;2024-03-25T13:18:58;2.63;;;1.27;;
315;SDS011;14128;48.686;9.738;2024-03-25T13:21:24;5.90;;;1.43;;
315;SDS011;14128;48.686;9.738;2024-03-25T13:23:50;3.20;;;1.70;;
315;SDS011;14128;48.686;9.738;2024-03-25T13:26:17;2.93;;;1.83;;
315;SDS011;14128;48.686;9.738;2024-03-25T13:28:43;2.77;;;1.13;;
315;SDS011;14128;48.686;9.738;2024-03-25T13:31:10;5.73;;;1.70;;
315;SDS011;14128;48.686;9.738;2024-03-25T13:33:37;4.00;;;2.13;;
315;SDS011;14128;48.686;9.738;2024-03-25T13:36:03;1.80;;;1.13;;
315;SDS011;14128;48.686;9.738;2024-03-25T13:38:29;5.50;;;1.67;;
315;SDS011;14128;48.686;9.738;2024-03-25T13:40:56;1.63;;;1.20;;
315;SDS011;14128;48.686;9.738;2024-03-25T13:43:22;1.33;;;1.23;;
315;SDS011;14128;48.686;9.738;2024-03-25T13:45:48;1.30;;;1.20;;
315;SDS011;14128;48.686;9.738;2024-03-25T13:48:16;2.50;;;1.50;;
315;SDS011;14128;48.686;9.738;2024-03-25T13:50:42;4.10;;;1.33;;
315;SDS011;14128;48.686;9.738;2024-03-25T13:53:09;2.33;;;1.67;;
315;SDS011;14128;48.686;9.738;2024-03-25T13:55:35;3.20;;;1.37;;
315;SDS011;14128;48.686;9.738;2024-03-25T13:58:01;1.63;;;0.97;;
315;SDS011;14128;48.686;9.738;2024-03-25T14:00:27;3.90;;;1.80;;
315;SDS011;14128;48.686;9.738;2024-03-25T14:02:54;3.77;;;1.73;;
315;SDS011;14128;48.686;9.738;2024-03-25T14:05:21;2.27;;;2.07;;
315;SDS011;14128;48.686;9.738;2024-03-25T14:07:48;3.27;;;1.50;;
315;SDS011;14128;48.686;9.738;2024-03-25T14:10:14;2.20;;;1.20;;
315;SDS011;14128;48.686;9.738;2024-03-25T14:12:40;6.23;;;2.27;;
315;SDS011;14128;48.686;9.738;2024-03-25T14:15:07;1.57;;;1.10;;
315;SDS011;14128;48.686;9.738;2024-03-25T14:17:33;3.63;;;1.43;;
315;SDS011;14128;48.686;9.738;2024-03-25T14:19:59;3.20;;;1.43;;
315;SDS011;14128;48.686;9.738;2024-03-25T14:22:27;2.73;;;1.73;;
315;SDS011;14128;48.686;9.738;2024-03-25T14:24:53;4.33;;;1.80;;
315;SDS011;14128;48.686;9.738;2024-03-25T14:27:21;2.77;;;1.80;;
315;SDS011;14128;48.686;9.738;2024-03-25T14:29:47;2.07;;;1.43;;
315;SDS011;14128;48.686;9.738;2024-03-25T14:32:14;2.67;;;1.30;;
315;SDS011;14128;48.686;9.738;2024-03-25T14:34:40;3.43;;;1.20;;
315;SDS011;14128;48.686;9.738;2024-03-25T14:37:06;3.60;;;1.50;;
315;SDS011;14128;48.686;9.738;2024-03-25T14:39:34;4.13;;;1.80;;
315;SDS011;14128;48.686;9.738;2024-03-25T14:42:00;2.87;;;1.00;;
315;SDS011;14128;48.686;9.738;2024-03-25T14:44:26;3.63;;;1.47;;
315;SDS011;14128;48.686;9.738;2024-03-25T14:46:52;5.33;;;3.10;;
315;SDS011;14128;48.686;9.738;2024-03-25T14:49:18;2.87;;;1.20;;
315;SDS011;14128;48.686;9.738;2024-03-25T14:51:45;2.40;;;1.53;;
315;SDS011;14128;48.686;9.738;2024-03-25T14:54:11;2.20;;;1.23;;
315;SDS011;14128;48.686;9.738;2024-03-25T14:56:38;2.47;;;1.50;;
315;SDS011;14128;48.686;9.738;2024-03-25T14:59:05;4.03;;;1.27;;
315;SDS011;14128;48.686;9.738;2024-03-25T15:01:31;1.43;;;1.00;;
315;SDS011;14128;48.686;9.738;2024-03-25T15:03:57;2.30;;;1.40;;
315;SDS011;14128;48.686;9.738;2024-03-25T15:06:23;1.97;;;1.17;;
315;SDS011;14128;48.686;9.738;2024-03-25T15:08:49;2.17;;;1.80;;
315;SDS011;14128;48.686;9.738;2024-03-25T15:11:15;2.03;;;1.07;;
315;SDS011;14128;48.686;9.738;2024-03-25T15:13:43;2.10;;;1.30;;